createdAt,value
2023-01-17T00:02:20.690Z,92427.75
2023-01-17T00:05:06.473Z,92412.28
2023-01-17T00:07:52.401Z,92421.66
2023-01-17T00:10:21.500Z,92430.03
2023-01-17T00:12:50.536Z,92410.78
2023-01-17T00:15:19.881Z,92429.94
2023-01-17T00:17:47.641Z,92392.75
2023-01-17T00:20:34.526Z,92412.13
2023-01-17T00:23:20.481Z,92417.22
2023-01-17T00:26:05.568Z,92411.91
2023-01-17T00:28:37.803Z,92410.81
2023-01-17T00:31:05.939Z,92400.38
2023-01-17T00:33:33.226Z,92408.88
2023-01-17T00:36:01.042Z,92395.38
2023-01-17T00:38:30.764Z,92391.72
2023-01-17T00:41:09.785Z,92396.38
2023-01-17T00:43:56.065Z,92393.91
2023-01-17T00:46:41.576Z,92385.59
2023-01-17T00:49:27.695Z,92397.06
2023-01-17T00:52:13.448Z,92400.88
2023-01-17T00:54:58.894Z,92401.94
2023-01-17T00:57:44.584Z,92408.13
2023-01-17T01:00:31.218Z,92405.59
2023-01-17T01:03:17.784Z,92423.88
2023-01-17T01:06:03.315Z,92419.44
2023-01-17T01:08:49.301Z,92420.53
2023-01-17T01:11:38.115Z,92421.72
2023-01-17T01:14:25.818Z,92421.41
2023-01-17T01:17:11.539Z,92420.34
2023-01-17T01:19:57.216Z,92416.03
2023-01-17T01:22:42.983Z,92419.09
2023-01-17T01:25:28.515Z,92431.34
2023-01-17T01:28:25.185Z,92418.81
2023-01-17T01:31:10.821Z,92404.53
2023-01-17T01:33:38.054Z,92419.09
2023-01-17T01:36:07.974Z,92398.72
2023-01-17T01:38:35.308Z,92366.94
2023-01-17T01:41:02.918Z,92340.84
2023-01-17T01:43:48.869Z,92354.53
2023-01-17T01:46:38.673Z,92338.50
2023-01-17T01:49:05.534Z,92347.72
2023-01-17T01:51:36.383Z,92332.06
2023-01-17T01:54:25.758Z,92332.56
2023-01-17T01:56:53.677Z,92346.25
2023-01-17T01:59:21.496Z,92334.22
2023-01-17T02:01:50.675Z,92336.31
2023-01-17T02:04:21.018Z,92324.44
2023-01-17T02:06:50.348Z,92298.16
2023-01-17T02:09:18.307Z,92310.53
2023-01-17T02:11:46.559Z,92348.53
2023-01-17T02:14:18.105Z,92331.66
2023-01-17T02:17:13.301Z,92330.59
2023-01-17T02:19:59.084Z,92330.06
2023-01-17T02:22:59.427Z,92347.84
2023-01-17T02:25:38.280Z,92340.41
2023-01-17T02:28:24.474Z,92334.06
2023-01-17T02:31:17.878Z,92346.09
2023-01-17T02:34:04.948Z,92346.91
2023-01-17T02:37:04.088Z,92341.03
2023-01-17T02:39:37.275Z,92333.41
2023-01-17T02:42:10.073Z,92358.16
2023-01-17T02:44:44.534Z,92344.69
2023-01-17T02:47:26.432Z,92331.63
2023-01-17T02:49:56.913Z,92332.59
2023-01-17T02:52:30.819Z,92340.41
2023-01-17T02:55:16.892Z,92328.19
2023-01-17T02:57:49.880Z,92333.59
2023-01-17T03:00:29.073Z,92314.09
2023-01-17T03:03:07.197Z,92306.63
2023-01-17T03:06:02.372Z,92316.88
2023-01-17T03:08:32.170Z,92323.31
2023-01-17T03:10:59.180Z,92317.75
2023-01-17T03:13:26.167Z,92318.50
2023-01-17T03:15:53.296Z,92326.22
2023-01-17T03:18:20.211Z,92287.94
2023-01-17T03:20:47.296Z,92307.59
2023-01-17T03:23:14.334Z,92296.66
2023-01-17T03:25:42.572Z,92302.81
2023-01-17T03:28:11.230Z,92290.56
2023-01-17T03:30:40.618Z,92297.84
2023-01-17T03:33:08.177Z,92270.53
2023-01-17T03:35:35.331Z,92287.28
2023-01-17T03:38:02.315Z,92304.09
2023-01-17T03:40:31.988Z,92305.78
2023-01-17T03:42:59.145Z,92324.97
2023-01-17T03:45:29.236Z,92317.38
2023-01-17T03:47:58.626Z,92318.03
2023-01-17T03:50:26.400Z,92344.31
2023-01-17T03:52:53.555Z,92330.19
2023-01-17T03:55:20.673Z,92345.03
2023-01-17T03:57:47.702Z,92319.41
2023-01-17T04:00:15.155Z,92310.94
2023-01-17T04:02:44.928Z,92317.22
2023-01-17T04:05:17.616Z,92310.84
2023-01-17T04:07:46.156Z,92298.97
2023-01-17T04:10:13.251Z,92302.19
2023-01-17T04:12:40.512Z,92315.13
2023-01-17T04:15:08.300Z,92316.38
2023-01-17T04:17:35.639Z,92348.22
2023-01-17T04:20:03.297Z,92345.06
2023-01-17T04:22:32.612Z,92353.47
2023-01-17T04:25:00.251Z,92345.56
2023-01-17T04:27:27.515Z,92344.06
2023-01-17T04:30:02.275Z,92334.69
2023-01-17T04:32:32.342Z,92315.72
2023-01-17T04:34:59.392Z,92333.63
2023-01-17T04:37:29.332Z,92350.06
2023-01-17T04:39:56.705Z,92358.47
2023-01-17T04:42:26.921Z,92361.78
2023-01-17T04:44:57.802Z,92349.25
2023-01-17T04:47:24.937Z,92339.75
2023-01-17T04:49:52.373Z,92341.59
2023-01-17T04:52:20.904Z,92340.22
2023-01-17T04:54:49.612Z,92346.72
2023-01-17T04:57:20.509Z,92346.13
2023-01-17T04:59:47.904Z,92378.00
2023-01-17T05:02:17.845Z,92399.88
2023-01-17T05:04:45.215Z,92387.94
2023-01-17T05:07:12.415Z,92389.13
2023-01-17T05:09:40.017Z,92380.41
2023-01-17T05:12:07.230Z,92389.97
2023-01-17T05:14:37.197Z,92395.53
2023-01-17T05:17:04.762Z,92392.06
2023-01-17T05:19:31.973Z,92409.75
2023-01-17T05:22:04.415Z,92413.75
2023-01-17T05:24:32.503Z,92397.28
2023-01-17T05:27:03.377Z,92367.66
2023-01-17T05:29:36.133Z,92330.03
2023-01-17T05:32:12.827Z,92356.31
2023-01-17T05:34:40.306Z,92351.63
2023-01-17T05:37:07.420Z,92355.25
2023-01-17T05:45:52.467Z,92342.28
2023-01-17T05:51:19.382Z,92338.06
2023-01-17T05:53:51.503Z,92323.09
2023-01-17T05:56:31.185Z,92289.25
2023-01-17T05:59:06.303Z,92250.50
2023-01-17T06:01:42.332Z,92263.78
2023-01-17T06:04:10.016Z,92256.25
2023-01-17T06:06:37.185Z,92257.47
2023-01-17T06:09:04.579Z,92263.03
2023-01-17T06:11:31.911Z,92296.63
2023-01-17T06:13:59.265Z,92286.81
2023-01-17T06:16:28.906Z,92289.03
2023-01-17T06:18:56.403Z,92271.88
2023-01-17T06:21:23.721Z,92257.28
2023-01-17T06:23:50.917Z,92266.94
2023-01-17T06:26:22.355Z,92250.63
2023-01-17T06:28:56.627Z,92236.03
2023-01-17T06:31:23.921Z,92243.59
2023-01-17T06:33:51.383Z,92297.69
2023-01-17T06:36:31.320Z,92323.19
2023-01-17T06:39:00.685Z,92281.31
2023-01-17T06:41:30.722Z,92299.69
2023-01-17T06:44:05.289Z,92278.41
2023-01-17T06:46:36.573Z,92312.75
2023-01-17T06:49:06.762Z,92309.22
2023-01-17T06:51:33.908Z,92295.44
2023-01-17T06:54:01.408Z,92332.78
2023-01-17T06:56:31.777Z,92331.81
2023-01-17T06:58:58.932Z,92329.25
2023-01-17T07:01:26.324Z,92322.72
2023-01-17T07:03:53.656Z,92338.94
2023-01-17T07:06:21.428Z,92361.84
2023-01-17T07:08:49.162Z,92366.81
2023-01-17T07:11:16.429Z,92380.91
2023-01-17T07:13:43.554Z,92364.13
2023-01-17T07:16:10.554Z,92352.91
2023-01-17T07:18:39.886Z,92380.94
2023-01-17T07:21:16.068Z,92358.63
2023-01-17T07:23:43.243Z,92379.56
2023-01-17T07:26:13.528Z,92373.09
2023-01-17T07:28:40.623Z,92347.59
2023-01-17T07:31:08.686Z,92356.84
2023-01-17T07:33:36.034Z,92347.13
2023-01-17T07:36:05.445Z,92407.09
2023-01-17T07:38:32.612Z,92346.44
2023-01-17T07:41:00.468Z,92389.31
2023-01-17T07:43:27.697Z,92339.19
2023-01-17T07:45:55.042Z,92347.38
2023-01-17T07:48:25.562Z,92351.56
2023-01-17T07:50:56.363Z,92335.00
2023-01-17T07:53:24.922Z,92337.59
2023-01-17T07:55:52.102Z,92356.19
2023-01-17T07:58:26.101Z,92343.75
2023-01-17T08:00:53.144Z,92378.78
2023-01-17T08:03:20.357Z,92343.53
2023-01-17T08:05:57.865Z,92347.88
2023-01-17T08:08:25.295Z,92358.56
2023-01-17T08:10:54.457Z,92371.66
2023-01-17T08:13:24.575Z,92372.63
2023-01-17T08:16:00.511Z,92383.69
2023-01-17T08:18:28.645Z,92381.94
2023-01-17T08:20:56.604Z,92379.16
2023-01-17T08:23:28.552Z,92381.91
2023-01-17T08:26:00.943Z,92438.16
2023-01-17T08:28:28.188Z,92396.00
2023-01-17T08:30:56.577Z,92415.38
2023-01-17T08:33:23.742Z,92398.84
2023-01-17T08:35:57.258Z,92412.72
2023-01-17T08:38:24.272Z,92361.56
2023-01-17T08:40:51.500Z,92419.09
2023-01-17T08:43:18.492Z,92405.66
2023-01-17T08:45:47.372Z,92411.81
2023-01-17T08:48:15.363Z,92389.03
2023-01-17T08:50:44.274Z,92399.13
2023-01-17T08:53:12.573Z,92378.13
2023-01-17T08:55:41.298Z,92370.44
2023-01-17T08:58:13.128Z,92378.53
2023-01-17T09:00:40.392Z,92371.94
2023-01-17T09:03:10.672Z,92387.81
2023-01-17T09:05:40.557Z,92358.13
2023-01-17T09:08:07.965Z,92366.91
2023-01-17T09:10:35.274Z,92386.94
2023-01-17T09:13:02.639Z,92369.84
2023-01-17T09:15:30.388Z,92403.41
2023-01-17T09:17:58.883Z,92394.50
2023-01-17T09:20:30.274Z,92384.56
2023-01-17T09:23:00.139Z,92397.03
2023-01-17T09:25:28.643Z,92390.69
2023-01-17T09:27:58.030Z,92390.63
2023-01-17T09:30:25.818Z,92397.44
2023-01-17T09:32:55.970Z,92399.97
2023-01-17T09:35:25.828Z,92400.31
2023-01-17T09:37:57.257Z,92385.03
2023-01-17T09:40:26.825Z,92372.78
2023-01-17T09:42:59.076Z,92334.72
2023-01-17T09:45:29.490Z,92330.38
2023-01-17T09:47:56.964Z,92344.91
2023-01-17T09:50:40.604Z,92352.00
2023-01-17T09:53:13.660Z,92400.78
2023-01-17T09:55:59.059Z,92361.97
2023-01-17T09:58:35.926Z,92332.03
2023-01-17T10:01:15.935Z,92362.59
2023-01-17T10:03:49.353Z,92359.34
2023-01-17T10:06:20.624Z,92367.41
2023-01-17T10:09:00.879Z,92343.03
2023-01-17T10:11:41.560Z,92366.88
2023-01-17T10:14:18.148Z,92377.38
2023-01-17T10:16:53.251Z,92365.91
2023-01-17T10:19:53.693Z,92388.72
2023-01-17T10:22:29.465Z,92397.69
2023-01-17T10:25:05.338Z,92357.97
2023-01-17T10:27:38.933Z,92393.41
2023-01-17T10:30:25.786Z,92397.38
2023-01-17T10:32:53.212Z,92397.91
2023-01-17T10:35:27.938Z,92401.63
2023-01-17T10:37:57.030Z,92411.28
2023-01-17T10:40:32.087Z,92400.78
2023-01-17T10:43:40.499Z,92379.13
2023-01-17T10:46:19.700Z,92389.38
2023-01-17T10:48:49.755Z,92323.25
2023-01-17T10:51:22.131Z,92334.22
2023-01-17T10:54:17.545Z,92385.63
2023-01-17T10:56:44.666Z,92370.50
2023-01-17T10:59:27.462Z,92376.84
2023-01-17T11:01:54.784Z,92356.19
2023-01-17T11:04:23.918Z,92380.16
2023-01-17T11:07:27.202Z,92359.63
2023-01-17T11:09:58.091Z,92344.50
2023-01-17T11:12:25.067Z,92382.22
2023-01-17T11:15:06.597Z,92361.69
2023-01-17T11:17:34.192Z,92328.69
2023-01-17T11:20:36.465Z,92316.75
2023-01-17T11:23:30.294Z,92352.47
2023-01-17T11:26:07.732Z,92340.13
2023-01-17T11:28:39.681Z,92310.03
2023-01-17T11:31:31.472Z,92315.56
2023-01-17T11:34:15.849Z,92304.22
2023-01-17T11:36:43.035Z,92291.13
2023-01-17T11:39:19.189Z,92283.13
2023-01-17T11:41:52.216Z,92278.59
2023-01-17T11:44:29.883Z,92281.63
2023-01-17T11:47:12.305Z,92296.84
2023-01-17T11:49:44.569Z,92271.09
2023-01-17T11:52:18.197Z,92272.03
2023-01-17T11:54:47.383Z,92264.06
2023-01-17T11:57:24.247Z,92253.88
2023-01-17T11:59:56.210Z,92245.78
2023-01-17T12:02:47.568Z,92260.19
2023-01-17T12:05:26.957Z,92249.84
2023-01-17T12:08:09.202Z,92241.94
2023-01-17T12:10:59.451Z,92246.72
2023-01-17T12:14:01.588Z,92223.53
2023-01-17T12:16:56.371Z,92247.56
2023-01-17T12:19:32.348Z,92239.22
2023-01-17T12:22:13.093Z,92215.00
2023-01-17T12:24:46.207Z,92229.03
2023-01-17T12:27:34.805Z,92221.28
2023-01-17T12:30:04.736Z,92222.00
2023-01-17T12:32:40.640Z,92210.91
2023-01-17T12:35:15.626Z,92205.81
2023-01-17T12:37:45.301Z,92206.69
2023-01-17T12:40:40.219Z,92185.44
2023-01-17T12:43:27.303Z,92184.78
2023-01-17T12:45:54.803Z,92195.19
2023-01-17T12:48:23.573Z,92207.59
2023-01-17T12:51:14.399Z,92195.50
2023-01-17T12:53:55.303Z,92180.78
2023-01-17T12:56:30.342Z,92199.81
2023-01-17T12:59:16.130Z,92207.50
2023-01-17T13:01:57.585Z,92187.47
2023-01-17T13:04:28.968Z,92209.53
2023-01-17T13:06:58.961Z,92216.41
2023-01-17T13:09:35.566Z,92195.25
2023-01-17T13:12:16.593Z,92213.19
2023-01-17T13:14:46.475Z,92212.41
2023-01-17T13:17:24.189Z,92192.97
2023-01-17T13:20:06.577Z,92186.03
2023-01-17T13:22:33.976Z,92198.94
2023-01-17T13:25:12.878Z,92212.41
2023-01-17T13:27:56.063Z,92191.59
2023-01-17T13:30:43.392Z,92217.88
2023-01-17T13:33:40.893Z,92208.53
2023-01-17T13:36:30.035Z,92218.22
2023-01-17T13:39:36.715Z,92211.41
2023-01-17T13:42:48.966Z,92208.91
2023-01-17T13:45:21.951Z,92205.53
2023-01-17T13:47:50.323Z,92156.16
2023-01-17T13:50:32.611Z,92204.38
2023-01-17T13:53:01.136Z,92207.59
2023-01-17T13:55:53.461Z,92209.38
2023-01-17T13:58:30.633Z,92206.75
2023-01-17T14:00:57.884Z,92223.03
2023-01-17T14:03:47.680Z,92206.16
2023-01-17T14:06:36.160Z,92193.53
2023-01-17T14:09:18.676Z,92208.53
2023-01-17T14:12:03.467Z,92204.00
2023-01-17T14:14:45.521Z,92215.38
2023-01-17T14:17:18.334Z,92225.06
2023-01-17T14:19:50.780Z,92222.72
2023-01-17T14:22:20.055Z,92213.59
2023-01-17T14:25:11.870Z,92222.78
2023-01-17T14:27:43.948Z,92229.94
2023-01-17T14:30:17.826Z,92209.97
2023-01-17T14:33:08.813Z,92196.97
2023-01-17T14:35:41.215Z,92208.88
2023-01-17T14:38:26.039Z,92234.66
2023-01-17T14:40:56.520Z,92216.28
2023-01-17T14:43:46.509Z,92207.88
2023-01-17T14:46:18.792Z,92209.53
2023-01-17T14:48:46.358Z,92212.22
2023-01-17T14:51:15.247Z,92222.56
2023-01-17T14:53:59.176Z,92230.53
2023-01-17T14:56:28.267Z,92234.88
2023-01-17T14:59:24.619Z,92249.63
2023-01-17T15:02:06.521Z,92237.22
2023-01-17T15:04:39.767Z,92241.81
2023-01-17T15:07:07.265Z,92239.47
2023-01-17T15:09:36.872Z,92244.25
2023-01-17T15:12:04.760Z,92225.25
2023-01-17T15:14:37.508Z,92256.59
2023-01-17T15:17:14.162Z,92249.06
2023-01-17T15:19:42.984Z,92262.97
2023-01-17T15:22:10.558Z,92254.88
2023-01-17T15:24:42.015Z,92263.56
2023-01-17T15:27:13.000Z,92250.13
2023-01-17T15:29:40.615Z,92259.81
2023-01-17T15:32:08.265Z,92250.31
2023-01-17T15:34:40.534Z,92264.78
2023-01-17T15:37:33.857Z,92270.72
2023-01-17T15:40:12.052Z,92278.63
2023-01-17T15:42:39.616Z,92288.13
2023-01-17T15:45:09.552Z,92271.31
2023-01-17T15:47:41.244Z,92266.16
2023-01-17T15:50:20.472Z,92270.34
2023-01-17T15:52:51.076Z,92267.94
2023-01-17T15:55:33.099Z,92287.94
2023-01-17T15:58:00.582Z,92287.31
2023-01-17T16:00:37.682Z,92269.75
2023-01-17T16:03:34.183Z,92275.66
2023-01-17T16:06:03.035Z,92269.53
2023-01-17T16:08:40.187Z,92280.00
2023-01-17T16:11:08.640Z,92273.47
2023-01-17T16:13:38.818Z,92271.13
2023-01-17T16:16:14.124Z,92276.63
2023-01-17T16:18:41.352Z,92279.41
2023-01-17T16:21:20.570Z,92277.63
2023-01-17T16:23:48.011Z,92261.19
2023-01-17T16:26:15.311Z,92257.03
2023-01-17T16:28:44.931Z,92273.22
2023-01-17T16:31:12.034Z,92258.56
2023-01-17T16:33:39.630Z,92263.28
2023-01-17T16:36:06.867Z,92271.53
2023-01-17T16:38:33.747Z,92252.59
2023-01-17T16:41:03.980Z,92245.28
2023-01-17T16:43:30.850Z,92243.47
2023-01-17T16:45:58.233Z,92244.25
2023-01-17T16:48:27.635Z,92243.03
2023-01-17T16:50:56.873Z,92252.13
2023-01-17T16:53:28.309Z,92270.47
2023-01-17T16:55:58.517Z,92253.50
2023-01-17T16:58:25.908Z,92264.69
2023-01-17T17:00:55.544Z,92254.59
2023-01-17T17:03:23.005Z,92275.09
2023-01-17T17:06:00.915Z,92247.81
2023-01-17T17:08:29.730Z,92237.72
2023-01-17T17:11:17.567Z,92248.75
2023-01-17T17:13:46.306Z,92266.06
2023-01-17T17:16:21.494Z,92256.16
2023-01-17T17:18:54.273Z,92226.38
2023-01-17T17:21:21.406Z,92217.06
2023-01-17T17:23:51.128Z,92192.75
2023-01-17T17:26:18.674Z,92202.78
2023-01-17T17:28:45.673Z,92201.56
2023-01-17T17:31:15.868Z,92191.09
2023-01-17T17:33:46.133Z,92188.13
2023-01-17T17:36:13.375Z,92207.09
2023-01-17T17:39:00.769Z,92177.72
2023-01-17T17:41:29.646Z,92196.44
2023-01-17T17:43:57.227Z,92200.22
2023-01-17T17:46:25.561Z,92193.31
2023-01-17T17:48:56.110Z,92173.59
2023-01-17T17:51:26.325Z,92183.44
2023-01-17T17:54:01.932Z,92169.63
2023-01-17T17:56:32.283Z,92175.53
2023-01-17T17:59:00.469Z,92172.19
2023-01-17T18:01:31.272Z,92126.63
2023-01-17T18:04:02.140Z,92118.34
2023-01-17T18:06:29.503Z,92143.56
2023-01-17T18:08:56.601Z,92125.19
2023-01-17T18:11:26.285Z,92155.16
2023-01-17T18:13:55.152Z,92141.16
2023-01-17T18:16:28.327Z,92123.22
2023-01-17T18:18:57.065Z,92132.31
2023-01-17T18:21:29.530Z,92111.59
2023-01-17T18:24:09.341Z,92118.94
2023-01-17T18:26:42.158Z,92118.53
2023-01-17T18:29:11.267Z,92126.25
2023-01-17T18:31:41.421Z,92149.34
2023-01-17T18:34:14.158Z,92111.72
2023-01-17T18:36:41.538Z,92109.84
2023-01-17T18:39:13.940Z,92115.38
2023-01-17T18:41:41.257Z,92119.75
2023-01-17T18:44:09.028Z,92105.53
2023-01-17T18:46:36.768Z,92119.59
2023-01-17T18:49:06.877Z,92114.66
2023-01-17T18:51:36.865Z,92101.81
2023-01-17T18:54:06.929Z,92109.50
2023-01-17T18:56:35.443Z,92128.63
2023-01-17T18:59:05.973Z,92114.59
2023-01-17T19:01:36.480Z,92128.56
2023-01-17T19:04:05.424Z,92105.22
2023-01-17T19:06:35.778Z,92142.91
2023-01-17T19:09:07.713Z,92115.34
2023-01-17T19:11:41.999Z,92126.56
2023-01-17T19:14:10.401Z,92113.16
2023-01-17T19:16:41.430Z,92107.84
2023-01-17T19:19:11.031Z,92114.16
2023-01-17T19:21:38.367Z,92127.41
2023-01-17T19:24:10.358Z,92114.84
2023-01-17T19:26:37.505Z,92093.72
2023-01-17T19:29:07.349Z,92136.53
2023-01-17T19:31:46.461Z,92125.16
2023-01-17T19:34:50.676Z,92135.00
2023-01-17T19:37:21.776Z,92100.25
2023-01-17T19:39:51.634Z,92131.25
2023-01-17T19:42:19.408Z,92174.09
2023-01-17T19:44:46.774Z,92122.19
2023-01-17T19:47:19.176Z,92129.56
2023-01-17T19:49:46.247Z,92088.81
2023-01-17T19:52:13.309Z,92108.28
2023-01-17T19:54:41.115Z,92122.34
2023-01-17T19:57:10.266Z,92135.22
2023-01-17T19:59:37.171Z,92121.97
2023-01-17T20:02:04.653Z,92101.38
2023-01-17T20:04:32.114Z,92123.72
2023-01-17T20:06:59.065Z,92093.75
2023-01-17T20:09:25.926Z,92090.88
2023-01-17T20:11:54.049Z,92066.06
2023-01-17T20:14:30.299Z,92065.22
2023-01-17T20:16:57.651Z,92044.72
2023-01-17T20:19:30.005Z,92047.41
2023-01-17T20:21:57.083Z,92071.81
2023-01-17T20:24:24.322Z,92105.91
2023-01-17T20:26:51.852Z,92119.81
2023-01-17T20:29:18.997Z,92110.06
2023-01-17T20:31:46.549Z,92110.06
2023-01-17T20:34:14.480Z,92111.47
2023-01-17T20:36:42.313Z,92098.00
2023-01-17T20:39:11.259Z,92125.72
2023-01-17T20:41:39.922Z,92128.28
2023-01-17T20:44:10.845Z,92165.22
2023-01-17T20:46:41.283Z,92128.81
2023-01-17T20:49:16.417Z,92063.09
2023-01-17T20:51:44.585Z,92088.22
2023-01-17T20:54:19.274Z,92072.59
2023-01-17T20:56:47.697Z,92054.03
2023-01-17T20:59:20.425Z,92078.13
2023-01-17T21:01:47.880Z,92054.00
2023-01-17T21:04:16.729Z,92067.19
2023-01-17T21:06:51.796Z,92036.25
2023-01-17T21:09:21.479Z,92066.41
2023-01-17T21:11:49.278Z,92048.06
2023-01-17T21:14:16.919Z,92028.78
2023-01-17T21:16:54.529Z,92054.00
2023-01-17T21:19:22.725Z,92034.00
2023-01-17T21:21:53.346Z,92039.19
2023-01-17T21:24:20.425Z,92031.22
2023-01-17T21:26:47.601Z,92017.53
2023-01-17T21:29:16.794Z,91954.50
2023-01-17T21:31:44.043Z,92000.72
2023-01-17T21:34:15.699Z,91992.84
2023-01-17T21:36:43.374Z,91963.75
2023-01-17T21:39:16.359Z,91956.09
2023-01-17T21:41:48.205Z,91992.41
2023-01-17T21:44:22.529Z,91930.97
2023-01-17T21:46:56.261Z,91987.47
2023-01-17T21:49:26.341Z,91935.31
2023-01-17T21:51:53.595Z,91928.16
2023-01-17T21:54:45.717Z,91943.06
2023-01-17T21:57:33.016Z,91954.47
2023-01-17T22:00:00.365Z,91944.94
2023-01-17T22:02:27.901Z,91977.84
2023-01-17T22:04:56.326Z,91943.34
2023-01-17T22:07:30.667Z,91939.78
2023-01-17T22:09:57.721Z,91937.75
2023-01-17T22:12:24.924Z,91947.88
2023-01-17T22:14:52.802Z,91963.91
2023-01-17T22:17:21.196Z,91957.31
2023-01-17T22:19:48.249Z,91921.28
2023-01-17T22:22:15.408Z,91942.28
2023-01-17T22:24:42.528Z,91910.13
2023-01-17T22:27:13.778Z,91915.72
2023-01-17T22:29:44.324Z,91948.50
2023-01-17T22:32:11.326Z,91950.16
2023-01-17T22:34:47.017Z,92026.72
2023-01-17T22:37:14.812Z,91904.81
2023-01-17T22:39:47.911Z,91901.44
2023-01-17T22:42:33.023Z,91843.38
2023-01-17T22:45:00.719Z,91864.00
2023-01-17T22:47:27.692Z,91853.38
2023-01-17T22:49:54.474Z,91852.22
2023-01-17T22:52:21.437Z,91874.50
2023-01-17T22:54:48.332Z,91917.97
2023-01-17T22:57:15.194Z,91864.91
2023-01-17T22:59:43.240Z,91915.56
2023-01-17T23:02:12.809Z,91916.34
2023-01-17T23:04:41.644Z,91889.56
2023-01-17T23:07:08.490Z,91955.03
2023-01-17T23:09:39.444Z,91912.41
2023-01-17T23:12:06.973Z,91895.44
2023-01-17T23:14:56.347Z,91894.88
2023-01-17T23:17:46.694Z,91888.91
2023-01-17T23:20:15.029Z,91915.94
2023-01-17T23:22:42.936Z,91855.66
2023-01-17T23:25:12.321Z,91859.44
2023-01-17T23:28:03.911Z,91883.22
2023-01-17T23:30:37.730Z,91866.03
2023-01-17T23:33:07.538Z,91837.03
2023-01-17T23:35:41.475Z,91870.53
2023-01-17T23:38:29.420Z,91875.47
2023-01-17T23:41:26.847Z,91887.13
2023-01-17T23:44:01.009Z,91809.38
2023-01-17T23:46:30.269Z,91857.44
2023-01-17T23:48:57.622Z,91844.75
2023-01-17T23:51:25.979Z,91826.41
2023-01-17T23:54:05.532Z,91891.22
2023-01-17T23:56:32.817Z,91867.66
2023-01-17T23:59:01.600Z,91801.66
